sensor_id;sensor_type;location;lat;lon;timestamp;temperature;humidity
7684;DHT22;3884;48.616;12.872;2023-04-25T00:02:26;8.40;1.00
7684;DHT22;3884;48.616;12.872;2023-04-25T00:04:55;8.40;1.00
7684;DHT22;3884;48.616;12.872;2023-04-25T00:07:25;8.40;1.00
7684;DHT22;3884;48.616;12.872;2023-04-25T00:09:52;8.30;95.50
7684;DHT22;3884;48.616;12.872;2023-04-25T00:12:19;8.30;99.90
7684;DHT22;3884;48.616;12.872;2023-04-25T00:14:47;8.40;99.90
7684;DHT22;3884;48.616;12.872;2023-04-25T00:17:15;8.30;99.90
7684;DHT22;3884;48.616;12.872;2023-04-25T00:19:42;8.20;93.40
7684;DHT22;3884;48.616;12.872;2023-04-25T00:22:11;8.30;76.90
7684;DHT22;3884;48.616;12.872;2023-04-25T00:24:39;8.30;1.00
7684;DHT22;3884;48.616;12.872;2023-04-25T00:27:05;8.20;1.00
7684;DHT22;3884;48.616;12.872;2023-04-25T00:29:33;8.20;1.00
7684;DHT22;3884;48.616;12.872;2023-04-25T00:32:00;8.10;99.90
7684;DHT22;3884;48.616;12.872;2023-04-25T00:34:27;8.00;99.90
7684;DHT22;3884;48.616;12.872;2023-04-25T00:36:54;8.00;99.90
7684;DHT22;3884;48.616;12.872;2023-04-25T00:39:23;8.00;99.90
7684;DHT22;3884;48.616;12.872;2023-04-25T00:41:51;8.10;99.90
7684;DHT22;3884;48.616;12.872;2023-04-25T00:44:20;7.90;1.00
7684;DHT22;3884;48.616;12.872;2023-04-25T00:46:47;7.80;99.90
7684;DHT22;3884;48.616;12.872;2023-04-25T00:49:15;7.70;1.00
7684;DHT22;3884;48.616;12.872;2023-04-25T00:51:43;7.80;1.00
7684;DHT22;3884;48.616;12.872;2023-04-25T00:54:11;7.70;1.00
7684;DHT22;3884;48.616;12.872;2023-04-25T00:56:40;7.70;1.00
7684;DHT22;3884;48.616;12.872;2023-04-25T00:59:09;7.60;99.90
7684;DHT22;3884;48.616;12.872;2023-04-25T01:01:39;7.60;99.90
7684;DHT22;3884;48.616;12.872;2023-04-25T01:04:09;7.40;99.90
7684;DHT22;3884;48.616;12.872;2023-04-25T01:06:36;7.40;1.00
7684;DHT22;3884;48.616;12.872;2023-04-25T01:09:04;7.10;50.10
7684;DHT22;3884;48.616;12.872;2023-04-25T01:11:31;7.30;99.90
7684;DHT22;3884;48.616;12.872;2023-04-25T01:13:59;7.40;99.90
7684;DHT22;3884;48.616;12.872;2023-04-25T01:16:28;7.50;99.90
7684;DHT22;3884;48.616;12.872;2023-04-25T01:18:55;7.60;99.90
7684;DHT22;3884;48.616;12.872;2023-04-25T01:21:24;7.60;99.90
7684;DHT22;3884;48.616;12.872;2023-04-25T01:23:55;7.60;1.00
7684;DHT22;3884;48.616;12.872;2023-04-25T01:26:24;7.60;1.00
7684;DHT22;3884;48.616;12.872;2023-04-25T01:28:52;7.60;1.00
7684;DHT22;3884;48.616;12.872;2023-04-25T01:31:21;7.70;1.00
7684;DHT22;3884;48.616;12.872;2023-04-25T01:33:48;7.60;1.00
7684;DHT22;3884;48.616;12.872;2023-04-25T01:36:15;7.60;1.00
7684;DHT22;3884;48.616;12.872;2023-04-25T01:38:44;7.60;1.00
7684;DHT22;3884;48.616;12.872;2023-04-25T01:41:13;7.60;1.00
7684;DHT22;3884;48.616;12.872;2023-04-25T01:43:52;7.60;1.00
7684;DHT22;3884;48.616;12.872;2023-04-25T01:46:19;7.70;1.00
7684;DHT22;3884;48.616;12.872;2023-04-25T01:48:47;7.50;1.00
7684;DHT22;3884;48.616;12.872;2023-04-25T01:51:17;7.60;99.90
7684;DHT22;3884;48.616;12.872;2023-04-25T01:53:45;7.60;99.90
7684;DHT22;3884;48.616;12.872;2023-04-25T01:56:13;7.60;1.00
7684;DHT22;3884;48.616;12.872;2023-04-25T01:58:40;7.80;99.90
7684;DHT22;3884;48.616;12.872;2023-04-25T02:01:19;7.80;1.00
7684;DHT22;3884;48.616;12.872;2023-04-25T02:04:07;7.50;1.00
7684;DHT22;3884;48.616;12.872;2023-04-25T02:06:39;7.60;1.00
7684;DHT22;3884;48.616;12.872;2023-04-25T02:09:12;7.60;99.90
7684;DHT22;3884;48.616;12.872;2023-04-25T02:11:44;7.60;1.00
7684;DHT22;3884;48.616;12.872;2023-04-25T02:14:32;7.10;7.40
7684;DHT22;3884;48.616;12.872;2023-04-25T02:17:18;7.10;1.00
7684;DHT22;3884;48.616;12.872;2023-04-25T02:19:52;7.10;1.00
7684;DHT22;3884;48.616;12.872;2023-04-25T02:22:23;7.20;1.00
7684;DHT22;3884;48.616;12.872;2023-04-25T02:24:54;7.20;1.00
7684;DHT22;3884;48.616;12.872;2023-04-25T02:27:21;7.30;1.00
7684;DHT22;3884;48.616;12.872;2023-04-25T02:29:49;7.20;1.00
7684;DHT22;3884;48.616;12.872;2023-04-25T02:32:16;7.10;99.90
7684;DHT22;3884;48.616;12.872;2023-04-25T02:34:43;7.20;99.90
7684;DHT22;3884;48.616;12.872;2023-04-25T02:37:10;7.10;1.00
7684;DHT22;3884;48.616;12.872;2023-04-25T02:39:37;7.10;1.00
7684;DHT22;3884;48.616;12.872;2023-04-25T02:42:06;7.30;99.90
7684;DHT22;3884;48.616;12.872;2023-04-25T02:44:35;7.30;37.40
7684;DHT22;3884;48.616;12.872;2023-04-25T02:47:04;7.20;21.20
7684;DHT22;3884;48.616;12.872;2023-04-25T02:49:32;7.50;1.00
7684;DHT22;3884;48.616;12.872;2023-04-25T02:51:59;7.30;99.90
7684;DHT22;3884;48.616;12.872;2023-04-25T02:54:28;7.40;99.90
7684;DHT22;3884;48.616;12.872;2023-04-25T02:56:57;7.20;99.90
7684;DHT22;3884;48.616;12.872;2023-04-25T02:59:29;7.10;1.00
7684;DHT22;3884;48.616;12.872;2023-04-25T03:01:57;7.20;1.00
7684;DHT22;3884;48.616;12.872;2023-04-25T03:04:25;7.10;99.90
7684;DHT22;3884;48.616;12.872;2023-04-25T03:06:52;7.10;99.90
7684;DHT22;3884;48.616;12.872;2023-04-25T03:09:21;7.00;99.90
7684;DHT22;3884;48.616;12.872;2023-04-25T03:11:51;7.10;99.90
7684;DHT22;3884;48.616;12.872;2023-04-25T03:14:28;7.20;1.00
7684;DHT22;3884;48.616;12.872;2023-04-25T03:17:02;7.10;1.00
7684;DHT22;3884;48.616;12.872;2023-04-25T03:19:47;7.10;99.90
7684;DHT22;3884;48.616;12.872;2023-04-25T03:22:15;7.00;99.90
7684;DHT22;3884;48.616;12.872;2023-04-25T03:24:42;6.90;99.90
7684;DHT22;3884;48.616;12.872;2023-04-25T03:27:09;6.80;99.90
7684;DHT22;3884;48.616;12.872;2023-04-25T03:29:37;6.70;1.00
7684;DHT22;3884;48.616;12.872;2023-04-25T03:32:06;6.70;2.60
7684;DHT22;3884;48.616;12.872;2023-04-25T03:34:33;6.60;1.00
7684;DHT22;3884;48.616;12.872;2023-04-25T03:37:01;6.70;5.00
7684;DHT22;3884;48.616;12.872;2023-04-25T03:39:31;6.80;1.00
7684;DHT22;3884;48.616;12.872;2023-04-25T03:42:01;6.80;1.00
7684;DHT22;3884;48.616;12.872;2023-04-25T03:44:29;6.80;1.00
7684;DHT22;3884;48.616;12.872;2023-04-25T03:46:58;6.80;1.00
7684;DHT22;3884;48.616;12.872;2023-04-25T03:49:45;6.90;1.00
7684;DHT22;3884;48.616;12.872;2023-04-25T03:52:24;6.70;1.00
7684;DHT22;3884;48.616;12.872;2023-04-25T03:55:03;6.70;1.00
7684;DHT22;3884;48.616;12.872;2023-04-25T03:57:30;6.70;99.90
7684;DHT22;3884;48.616;12.872;2023-04-25T04:00:01;6.90;1.00
7684;DHT22;3884;48.616;12.872;2023-04-25T04:02:40;6.60;99.90
7684;DHT22;3884;48.616;12.872;2023-04-25T04:05:09;6.90;99.90
7684;DHT22;3884;48.616;12.872;2023-04-25T04:07:41;6.80;99.90
7684;DHT22;3884;48.616;12.872;2023-04-25T04:10:10;6.90;1.00
7684;DHT22;3884;48.616;12.872;2023-04-25T04:12:39;6.90;99.90
7684;DHT22;3884;48.616;12.872;2023-04-25T04:15:08;6.60;99.90
7684;DHT22;3884;48.616;12.872;2023-04-25T04:17:35;6.70;1.00
7684;DHT22;3884;48.616;12.872;2023-04-25T04:20:05;6.80;99.90
7684;DHT22;3884;48.616;12.872;2023-04-25T04:22:50;6.80;99.90
7684;DHT22;3884;48.616;12.872;2023-04-25T04:25:45;6.90;1.00
7684;DHT22;3884;48.616;12.872;2023-04-25T04:28:37;6.90;99.90
7684;DHT22;3884;48.616;12.872;2023-04-25T04:31:18;6.80;1.00
7684;DHT22;3884;48.616;12.872;2023-04-25T04:33:48;6.80;1.00
7684;DHT22;3884;48.616;12.872;2023-04-25T04:36:20;7.00;1.00
7684;DHT22;3884;48.616;12.872;2023-04-25T04:38:49;6.80;1.00
7684;DHT22;3884;48.616;12.872;2023-04-25T04:41:31;6.90;99.90
7684;DHT22;3884;48.616;12.872;2023-04-25T04:44:35;6.90;1.00
7684;DHT22;3884;48.616;12.872;2023-04-25T04:47:25;6.90;99.90
7684;DHT22;3884;48.616;12.872;2023-04-25T04:50:22;6.90;1.00
7684;DHT22;3884;48.616;12.872;2023-04-25T04:53:25;7.10;1.00
7684;DHT22;3884;48.616;12.872;2023-04-25T04:55:52;7.10;1.00
7684;DHT22;3884;48.616;12.872;2023-04-25T04:58:31;7.10;22.40
7684;DHT22;3884;48.616;12.872;2023-04-25T05:01:18;7.10;1.00
7684;DHT22;3884;48.616;12.872;2023-04-25T05:03:59;7.20;99.90
7684;DHT22;3884;48.616;12.872;2023-04-25T05:06:44;7.30;1.00
7684;DHT22;3884;48.616;12.872;2023-04-25T05:09:31;7.50;1.00
7684;DHT22;3884;48.616;12.872;2023-04-25T05:12:27;7.40;1.00
7684;DHT22;3884;48.616;12.872;2023-04-25T05:15:14;7.30;1.00
7684;DHT22;3884;48.616;12.872;2023-04-25T05:18:03;7.30;99.90
7684;DHT22;3884;48.616;12.872;2023-04-25T05:20:45;7.30;99.90
7684;DHT22;3884;48.616;12.872;2023-04-25T05:23:24;7.40;1.00
7684;DHT22;3884;48.616;12.872;2023-04-25T05:26:04;7.40;99.90
7684;DHT22;3884;48.616;12.872;2023-04-25T05:28:51;7.50;1.00
7684;DHT22;3884;48.616;12.872;2023-04-25T05:31:47;7.60;99.90
7684;DHT22;3884;48.616;12.872;2023-04-25T05:34:15;7.70;1.00
7684;DHT22;3884;48.616;12.872;2023-04-25T05:36:56;7.70;1.00
7684;DHT22;3884;48.616;12.872;2023-04-25T05:39:23;7.80;1.00
7684;DHT22;3884;48.616;12.872;2023-04-25T05:42:12;7.80;1.00
7684;DHT22;3884;48.616;12.872;2023-04-25T05:44:58;7.70;1.00
7684;DHT22;3884;48.616;12.872;2023-04-25T05:47:31;7.70;99.90
7684;DHT22;3884;48.616;12.872;2023-04-25T05:50:09;7.70;99.90
7684;DHT22;3884;48.616;12.872;2023-04-25T05:52:54;7.60;64.30
7684;DHT22;3884;48.616;12.872;2023-04-25T05:55:41;7.70;99.90
7684;DHT22;3884;48.616;12.872;2023-04-25T05:58:39;7.70;99.90
7684;DHT22;3884;48.616;12.872;2023-04-25T06:01:07;7.70;99.90
7684;DHT22;3884;48.616;12.872;2023-04-25T06:03:34;7.70;1.00
7684;DHT22;3884;48.616;12.872;2023-04-25T06:06:04;7.90;94.90
7684;DHT22;3884;48.616;12.872;2023-04-25T06:08:32;7.70;99.90
7684;DHT22;3884;48.616;12.872;2023-04-25T06:10:59;7.70;1.00
7684;DHT22;3884;48.616;12.872;2023-04-25T06:13:26;7.70;1.00
7684;DHT22;3884;48.616;12.872;2023-04-25T06:15:56;7.80;1.00
7684;DHT22;3884;48.616;12.872;2023-04-25T06:18:23;7.80;1.00
7684;DHT22;3884;48.616;12.872;2023-04-25T06:20:49;7.80;99.90
7684;DHT22;3884;48.616;12.872;2023-04-25T06:23:17;7.80;1.00
7684;DHT22;3884;48.616;12.872;2023-04-25T06:25:50;8.00;1.00
7684;DHT22;3884;48.616;12.872;2023-04-25T06:28:17;8.00;99.90
7684;DHT22;3884;48.616;12.872;2023-04-25T06:30:44;8.10;99.90
7684;DHT22;3884;48.616;12.872;2023-04-25T06:33:18;8.20;99.90
7684;DHT22;3884;48.616;12.872;2023-04-25T06:35:46;8.30;1.00
7684;DHT22;3884;48.616;12.872;2023-04-25T06:38:16;8.30;1.00
7684;DHT22;3884;48.616;12.872;2023-04-25T06:40:47;8.40;1.00
7684;DHT22;3884;48.616;12.872;2023-04-25T06:43:14;8.50;1.00
7684;DHT22;3884;48.616;12.872;2023-04-25T06:45:50;8.50;1.00
7684;DHT22;3884;48.616;12.872;2023-04-25T06:48:19;8.50;99.90
7684;DHT22;3884;48.616;12.872;2023-04-25T06:50:46;8.50;99.90
7684;DHT22;3884;48.616;12.872;2023-04-25T06:53:13;8.50;54.80
7684;DHT22;3884;48.616;12.872;2023-04-25T06:55:43;8.50;1.00
7684;DHT22;3884;48.616;12.872;2023-04-25T06:58:15;8.50;1.00
7684;DHT22;3884;48.616;12.872;2023-04-25T07:00:53;8.70;1.00
7684;DHT22;3884;48.616;12.872;2023-04-25T07:03:24;8.60;99.90
7684;DHT22;3884;48.616;12.872;2023-04-25T07:05:56;8.70;99.90
7684;DHT22;3884;48.616;12.872;2023-04-25T07:08:24;8.90;99.90
7684;DHT22;3884;48.616;12.872;2023-04-25T07:10:51;9.00;99.90
7684;DHT22;3884;48.616;12.872;2023-04-25T07:13:18;9.10;99.90
7684;DHT22;3884;48.616;12.872;2023-04-25T07:15:45;9.10;90.50
7684;DHT22;3884;48.616;12.872;2023-04-25T07:18:14;9.10;99.90
7684;DHT22;3884;48.616;12.872;2023-04-25T07:20:42;9.10;1.00
7684;DHT22;3884;48.616;12.872;2023-04-25T07:23:09;9.10;1.00
7684;DHT22;3884;48.616;12.872;2023-04-25T07:25:36;9.10;1.00
7684;DHT22;3884;48.616;12.872;2023-04-25T07:28:03;9.10;1.00
7684;DHT22;3884;48.616;12.872;2023-04-25T07:30:30;9.20;1.00
7684;DHT22;3884;48.616;12.872;2023-04-25T07:32:57;9.30;1.00
7684;DHT22;3884;48.616;12.872;2023-04-25T07:35:24;9.40;1.00
7684;DHT22;3884;48.616;12.872;2023-04-25T07:37:52;9.40;1.00
7684;DHT22;3884;48.616;12.872;2023-04-25T07:40:19;9.50;1.00
7684;DHT22;3884;48.616;12.872;2023-04-25T07:42:52;9.60;1.00
7684;DHT22;3884;48.616;12.872;2023-04-25T07:45:36;9.80;1.00
7684;DHT22;3884;48.616;12.872;2023-04-25T07:48:28;9.90;1.00
7684;DHT22;3884;48.616;12.872;2023-04-25T07:50:55;10.20;99.90
7684;DHT22;3884;48.616;12.872;2023-04-25T07:53:24;10.10;1.00
7684;DHT22;3884;48.616;12.872;2023-04-25T07:56:00;9.90;1.00
7684;DHT22;3884;48.616;12.872;2023-04-25T07:58:38;9.80;99.90
7684;DHT22;3884;48.616;12.872;2023-04-25T08:01:20;10.00;1.00
7684;DHT22;3884;48.616;12.872;2023-04-25T08:03:55;9.90;1.00
7684;DHT22;3884;48.616;12.872;2023-04-25T08:06:34;10.30;99.90
7684;DHT22;3884;48.616;12.872;2023-04-25T08:09:14;10.10;1.00
7684;DHT22;3884;48.616;12.872;2023-04-25T08:11:42;9.90;99.90
7684;DHT22;3884;48.616;12.872;2023-04-25T08:14:12;9.80;99.90
7684;DHT22;3884;48.616;12.872;2023-04-25T08:16:40;9.80;99.90
7684;DHT22;3884;48.616;12.872;2023-04-25T08:19:07;9.80;44.50
7684;DHT22;3884;48.616;12.872;2023-04-25T08:21:34;10.00;44.50
7684;DHT22;3884;48.616;12.872;2023-04-25T08:24:05;10.20;99.90
7684;DHT22;3884;48.616;12.872;2023-04-25T08:26:37;10.10;99.90
7684;DHT22;3884;48.616;12.872;2023-04-25T08:29:06;10.00;99.90
7684;DHT22;3884;48.616;12.872;2023-04-25T08:31:36;10.00;99.90
7684;DHT22;3884;48.616;12.872;2023-04-25T08:34:04;9.90;99.90
7684;DHT22;3884;48.616;12.872;2023-04-25T08:36:50;9.60;99.90
7684;DHT22;3884;48.616;12.872;2023-04-25T08:39:37;9.80;99.90
7684;DHT22;3884;48.616;12.872;2023-04-25T08:42:36;9.80;72.30
7684;DHT22;3884;48.616;12.872;2023-04-25T08:45:05;9.80;1.00
7684;DHT22;3884;48.616;12.872;2023-04-25T08:47:37;10.10;1.00
7684;DHT22;3884;48.616;12.872;2023-04-25T08:50:06;10.20;1.00
7684;DHT22;3884;48.616;12.872;2023-04-25T08:52:37;10.50;1.00
7684;DHT22;3884;48.616;12.872;2023-04-25T08:55:07;10.90;99.90
7684;DHT22;3884;48.616;12.872;2023-04-25T08:57:39;11.20;99.90
7684;DHT22;3884;48.616;12.872;2023-04-25T09:00:09;11.40;99.90
7684;DHT22;3884;48.616;12.872;2023-04-25T09:02:39;11.40;99.70
7684;DHT22;3884;48.616;12.872;2023-04-25T09:05:08;11.20;98.90
7684;DHT22;3884;48.616;12.872;2023-04-25T09:07:36;11.00;27.60
7684;DHT22;3884;48.616;12.872;2023-04-25T09:10:04;11.00;42.20
7684;DHT22;3884;48.616;12.872;2023-04-25T09:12:35;11.00;52.60
7684;DHT22;3884;48.616;12.872;2023-04-25T09:15:06;11.20;8.40
7684;DHT22;3884;48.616;12.872;2023-04-25T09:18:05;11.40;1.00
7684;DHT22;3884;48.616;12.872;2023-04-25T09:20:41;11.30;23.10
7684;DHT22;3884;48.616;12.872;2023-04-25T09:23:08;11.00;60.40
7684;DHT22;3884;48.616;12.872;2023-04-25T09:25:38;11.00;25.80
7684;DHT22;3884;48.616;12.872;2023-04-25T09:28:07;11.20;36.80
7684;DHT22;3884;48.616;12.872;2023-04-25T09:30:36;11.30;1.00
7684;DHT22;3884;48.616;12.872;2023-04-25T09:33:11;11.60;1.00
7684;DHT22;3884;48.616;12.872;2023-04-25T09:35:43;11.90;1.00
7684;DHT22;3884;48.616;12.872;2023-04-25T09:38:19;12.00;1.00
7684;DHT22;3884;48.616;12.872;2023-04-25T09:41:10;12.00;1.00
7684;DHT22;3884;48.616;12.872;2023-04-25T09:43:45;12.10;1.00
7684;DHT22;3884;48.616;12.872;2023-04-25T09:46:13;12.30;1.00
7684;DHT22;3884;48.616;12.872;2023-04-25T09:48:49;12.10;1.00
7684;DHT22;3884;48.616;12.872;2023-04-25T09:51:25;12.30;6.90
7684;DHT22;3884;48.616;12.872;2023-04-25T09:53:52;11.90;24.00
7684;DHT22;3884;48.616;12.872;2023-04-25T09:56:43;11.20;85.70
7684;DHT22;3884;48.616;12.872;2023-04-25T09:59:11;10.50;48.70
7684;DHT22;3884;48.616;12.872;2023-04-25T10:01:41;10.50;99.90
7684;DHT22;3884;48.616;12.872;2023-04-25T10:04:24;10.50;99.90
7684;DHT22;3884;48.616;12.872;2023-04-25T10:07:15;10.40;1.00
7684;DHT22;3884;48.616;12.872;2023-04-25T10:09:44;10.50;99.90
7684;DHT22;3884;48.616;12.872;2023-04-25T10:12:14;10.70;99.90
7684;DHT22;3884;48.616;12.872;2023-04-25T10:14:41;11.00;99.90
7684;DHT22;3884;48.616;12.872;2023-04-25T10:17:10;11.40;99.90
7684;DHT22;3884;48.616;12.872;2023-04-25T10:19:37;11.50;72.10
7684;DHT22;3884;48.616;12.872;2023-04-25T10:22:07;11.70;75.80
7684;DHT22;3884;48.616;12.872;2023-04-25T10:24:35;11.70;99.90
7684;DHT22;3884;48.616;12.872;2023-04-25T10:27:03;11.70;99.90
7684;DHT22;3884;48.616;12.872;2023-04-25T10:29:30;11.50;99.90
7684;DHT22;3884;48.616;12.872;2023-04-25T10:31:57;11.10;99.90
7684;DHT22;3884;48.616;12.872;2023-04-25T10:34:41;10.70;1.00
7684;DHT22;3884;48.616;12.872;2023-04-25T10:37:09;10.50;1.00
7684;DHT22;3884;48.616;12.872;2023-04-25T10:39:39;10.70;1.00
7684;DHT22;3884;48.616;12.872;2023-04-25T10:42:07;11.10;1.00
7684;DHT22;3884;48.616;12.872;2023-04-25T10:44:35;11.10;99.90
7684;DHT22;3884;48.616;12.872;2023-04-25T10:47:03;11.20;1.00
7684;DHT22;3884;48.616;12.872;2023-04-25T10:49:35;11.30;99.90
7684;DHT22;3884;48.616;12.872;2023-04-25T10:54:51;11.20;99.90
7684;DHT22;3884;48.616;12.872;2023-04-25T10:57:31;11.20;99.90
7684;DHT22;3884;48.616;12.872;2023-04-25T11:00:10;11.40;99.90
7684;DHT22;3884;48.616;12.872;2023-04-25T11:02:41;11.10;94.70
7684;DHT22;3884;48.616;12.872;2023-04-25T11:05:10;10.50;99.90
7684;DHT22;3884;48.616;12.872;2023-04-25T11:07:47;10.10;99.90
7684;DHT22;3884;48.616;12.872;2023-04-25T11:10:15;9.60;1.00
7684;DHT22;3884;48.616;12.872;2023-04-25T11:12:42;9.20;1.00
7684;DHT22;3884;48.616;12.872;2023-04-25T11:15:10;8.90;1.00
7684;DHT22;3884;48.616;12.872;2023-04-25T11:17:36;8.80;1.00
7684;DHT22;3884;48.616;12.872;2023-04-25T11:20:06;8.70;1.00
7684;DHT22;3884;48.616;12.872;2023-04-25T11:22:38;8.80;99.90
7684;DHT22;3884;48.616;12.872;2023-04-25T11:25:08;9.00;13.10
7684;DHT22;3884;48.616;12.872;2023-04-25T11:27:37;9.20;96.30
7684;DHT22;3884;48.616;12.872;2023-04-25T11:30:12;9.30;1.00
7684;DHT22;3884;48.616;12.872;2023-04-25T11:32:40;9.40;1.00
7684;DHT22;3884;48.616;12.872;2023-04-25T11:35:08;9.50;1.00
7684;DHT22;3884;48.616;12.872;2023-04-25T11:37:35;9.60;1.00
7684;DHT22;3884;48.616;12.872;2023-04-25T11:40:05;9.70;1.00
7684;DHT22;3884;48.616;12.872;2023-04-25T11:42:34;9.90;1.00
7684;DHT22;3884;48.616;12.872;2023-04-25T11:45:01;10.00;1.00
7684;DHT22;3884;48.616;12.872;2023-04-25T11:47:30;10.00;1.00
7684;DHT22;3884;48.616;12.872;2023-04-25T11:49:58;9.80;1.00
7684;DHT22;3884;48.616;12.872;2023-04-25T11:52:38;9.60;1.00
7684;DHT22;3884;48.616;12.872;2023-04-25T11:55:09;9.30;1.00
7684;DHT22;3884;48.616;12.872;2023-04-25T11:57:38;9.20;85.30
7684;DHT22;3884;48.616;12.872;2023-04-25T12:00:11;9.10;99.90
7684;DHT22;3884;48.616;12.872;2023-04-25T12:02:40;9.00;99.90
7684;DHT22;3884;48.616;12.872;2023-04-25T12:05:08;8.80;99.90
7684;DHT22;3884;48.616;12.872;2023-04-25T12:07:36;8.80;1.00
7684;DHT22;3884;48.616;12.872;2023-04-25T12:10:09;8.70;99.90
7684;DHT22;3884;48.616;12.872;2023-04-25T12:12:38;8.60;1.00
7684;DHT22;3884;48.616;12.872;2023-04-25T12:15:09;8.40;99.90
7684;DHT22;3884;48.616;12.872;2023-04-25T12:17:37;8.40;99.90
7684;DHT22;3884;48.616;12.872;2023-04-25T12:20:11;8.50;1.00
7684;DHT22;3884;48.616;12.872;2023-04-25T12:22:40;8.60;1.00
7684;DHT22;3884;48.616;12.872;2023-04-25T12:25:11;8.90;99.90
7684;DHT22;3884;48.616;12.872;2023-04-25T12:27:39;9.30;1.00
7684;DHT22;3884;48.616;12.872;2023-04-25T12:30:08;9.60;1.80
7684;DHT22;3884;48.616;12.872;2023-04-25T12:32:37;9.80;1.00
7684;DHT22;3884;48.616;12.872;2023-04-25T12:35:05;10.00;99.90
7684;DHT22;3884;48.616;12.872;2023-04-25T12:37:32;10.20;99.90
7684;DHT22;3884;48.616;12.872;2023-04-25T12:39:58;10.30;99.90
7684;DHT22;3884;48.616;12.872;2023-04-25T12:42:27;10.30;1.00
7684;DHT22;3884;48.616;12.872;2023-04-25T12:44:55;10.50;99.90
7684;DHT22;3884;48.616;12.872;2023-04-25T12:47:21;10.80;99.90
7684;DHT22;3884;48.616;12.872;2023-04-25T12:49:48;10.90;1.00
7684;DHT22;3884;48.616;12.872;2023-04-25T12:52:15;10.70;1.00
7684;DHT22;3884;48.616;12.872;2023-04-25T12:54:42;10.50;1.00
7684;DHT22;3884;48.616;12.872;2023-04-25T12:57:09;10.40;99.90
7684;DHT22;3884;48.616;12.872;2023-04-25T12:59:38;10.20;99.90
7684;DHT22;3884;48.616;12.872;2023-04-25T13:02:05;10.20;1.00
7684;DHT22;3884;48.616;12.872;2023-04-25T13:04:32;10.00;21.80
7684;DHT22;3884;48.616;12.872;2023-04-25T13:07:00;9.70;1.00
7684;DHT22;3884;48.616;12.872;2023-04-25T13:09:27;9.70;1.00
7684;DHT22;3884;48.616;12.872;2023-04-25T13:11:54;9.80;9.50
7684;DHT22;3884;48.616;12.872;2023-04-25T13:14:21;9.80;1.00
7684;DHT22;3884;48.616;12.872;2023-04-25T13:16:49;9.80;1.00
7684;DHT22;3884;48.616;12.872;2023-04-25T13:19:18;9.80;99.90
7684;DHT22;3884;48.616;12.872;2023-04-25T13:21:45;9.80;1.00
7684;DHT22;3884;48.616;12.872;2023-04-25T13:24:12;10.00;99.90
7684;DHT22;3884;48.616;12.872;2023-04-25T13:26:39;10.00;1.00
7684;DHT22;3884;48.616;12.872;2023-04-25T13:29:05;10.00;99.90
7684;DHT22;3884;48.616;12.872;2023-04-25T13:31:32;10.00;99.90
7684;DHT22;3884;48.616;12.872;2023-04-25T13:34:01;9.80;1.00
7684;DHT22;3884;48.616;12.872;2023-04-25T13:36:29;9.80;1.00
7684;DHT22;3884;48.616;12.872;2023-04-25T13:38:56;9.70;1.00
7684;DHT22;3884;48.616;12.872;2023-04-25T13:41:23;9.70;99.90
7684;DHT22;3884;48.616;12.872;2023-04-25T13:43:50;9.70;1.00
7684;DHT22;3884;48.616;12.872;2023-04-25T13:46:17;9.70;1.00
7684;DHT22;3884;48.616;12.872;2023-04-25T13:48:44;9.90;99.90
7684;DHT22;3884;48.616;12.872;2023-04-25T13:51:16;9.90;1.00
7684;DHT22;3884;48.616;12.872;2023-04-25T13:53:43;10.00;92.10
7684;DHT22;3884;48.616;12.872;2023-04-25T13:56:10;10.10;99.90
7684;DHT22;3884;48.616;12.872;2023-04-25T13:58:38;10.30;1.00
7684;DHT22;3884;48.616;12.872;2023-04-25T14:01:07;10.40;9.80
7684;DHT22;3884;48.616;12.872;2023-04-25T14:03:34;10.50;99.90
7684;DHT22;3884;48.616;12.872;2023-04-25T14:06:01;10.50;5.50
7684;DHT22;3884;48.616;12.872;2023-04-25T14:08:29;10.60;99.90
7684;DHT22;3884;48.616;12.872;2023-04-25T14:10:56;10.60;99.90
7684;DHT22;3884;48.616;12.872;2023-04-25T14:13:23;10.70;26.90
7684;DHT22;3884;48.616;12.872;2023-04-25T14:15:50;10.60;95.20
7684;DHT22;3884;48.616;12.872;2023-04-25T14:18:17;10.70;1.00
7684;DHT22;3884;48.616;12.872;2023-04-25T14:20:44;10.80;99.90
7684;DHT22;3884;48.616;12.872;2023-04-25T14:23:11;10.90;1.00
7684;DHT22;3884;48.616;12.872;2023-04-25T14:25:39;10.90;99.90
7684;DHT22;3884;48.616;12.872;2023-04-25T14:28:07;10.90;99.90
7684;DHT22;3884;48.616;12.872;2023-04-25T14:30:34;10.90;99.90
7684;DHT22;3884;48.616;12.872;2023-04-25T14:33:01;10.90;99.90
7684;DHT22;3884;48.616;12.872;2023-04-25T14:35:28;10.90;99.90
7684;DHT22;3884;48.616;12.872;2023-04-25T14:37:55;10.90;99.90
7684;DHT22;3884;48.616;12.872;2023-04-25T14:40:22;10.90;99.90
7684;DHT22;3884;48.616;12.872;2023-04-25T14:42:50;10.90;99.90
7684;DHT22;3884;48.616;12.872;2023-04-25T14:45:17;10.90;12.10
7684;DHT22;3884;48.616;12.872;2023-04-25T14:47:45;10.90;1.00
7684;DHT22;3884;48.616;12.872;2023-04-25T14:50:11;10.90;99.90
7684;DHT22;3884;48.616;12.872;2023-04-25T14:52:38;10.90;99.90
7684;DHT22;3884;48.616;12.872;2023-04-25T14:55:17;10.80;99.90
7684;DHT22;3884;48.616;12.872;2023-04-25T14:57:44;10.80;90.20
7684;DHT22;3884;48.616;12.872;2023-04-25T15:00:13;10.80;85.10
7684;DHT22;3884;48.616;12.872;2023-04-25T15:02:41;10.80;55.90
7684;DHT22;3884;48.616;12.872;2023-04-25T15:05:08;10.90;45.20
7684;DHT22;3884;48.616;12.872;2023-04-25T15:07:35;10.90;95.40
7684;DHT22;3884;48.616;12.872;2023-04-25T15:10:02;11.00;48.40
7684;DHT22;3884;48.616;12.872;2023-04-25T15:12:31;11.00;28.80
7684;DHT22;3884;48.616;12.872;2023-04-25T15:14:58;11.10;36.30
7684;DHT22;3884;48.616;12.872;2023-04-25T15:17:26;11.00;38.90
7684;DHT22;3884;48.616;12.872;2023-04-25T15:19:56;11.00;63.70
7684;DHT22;3884;48.616;12.872;2023-04-25T15:22:25;11.10;1.00
7684;DHT22;3884;48.616;12.872;2023-04-25T15:24:52;11.00;31.90
7684;DHT22;3884;48.616;12.872;2023-04-25T15:27:21;10.90;42.30
7684;DHT22;3884;48.616;12.872;2023-04-25T15:29:48;10.90;27.40
7684;DHT22;3884;48.616;12.872;2023-04-25T15:32:15;10.90;42.00
7684;DHT22;3884;48.616;12.872;2023-04-25T15:34:43;10.90;76.20
7684;DHT22;3884;48.616;12.872;2023-04-25T15:37:26;10.80;94.50
7684;DHT22;3884;48.616;12.872;2023-04-25T15:40:20;10.60;99.90
7684;DHT22;3884;48.616;12.872;2023-04-25T15:43:04;10.90;99.90
7684;DHT22;3884;48.616;12.872;2023-04-25T15:46:05;10.80;99.90
7684;DHT22;3884;48.616;12.872;2023-04-25T15:48:44;10.80;99.90
7684;DHT22;3884;48.616;12.872;2023-04-25T15:51:12;10.80;99.90
7684;DHT22;3884;48.616;12.872;2023-04-25T15:53:40;10.80;99.90
7684;DHT22;3884;48.616;12.872;2023-04-25T15:56:06;10.70;99.90
7684;DHT22;3884;48.616;12.872;2023-04-25T15:58:33;10.70;61.40
7684;DHT22;3884;48.616;12.872;2023-04-25T16:01:01;10.70;71.70
7684;DHT22;3884;48.616;12.872;2023-04-25T16:03:29;10.60;1.00
7684;DHT22;3884;48.616;12.872;2023-04-25T16:05:56;10.60;1.00
7684;DHT22;3884;48.616;12.872;2023-04-25T16:08:24;10.70;28.30
7684;DHT22;3884;48.616;12.872;2023-04-25T16:11:03;10.80;31.60
7684;DHT22;3884;48.616;12.872;2023-04-25T16:13:30;10.70;99.90
7684;DHT22;3884;48.616;12.872;2023-04-25T16:15:58;10.60;99.90
7684;DHT22;3884;48.616;12.872;2023-04-25T16:18:25;10.50;99.90
7684;DHT22;3884;48.616;12.872;2023-04-25T16:20:52;10.40;1.00
7684;DHT22;3884;48.616;12.872;2023-04-25T16:23:21;10.40;1.00
7684;DHT22;3884;48.616;12.872;2023-04-25T16:25:49;10.50;1.00
7684;DHT22;3884;48.616;12.872;2023-04-25T16:28:16;10.40;1.00
7684;DHT22;3884;48.616;12.872;2023-04-25T16:30:43;10.30;1.00
7684;DHT22;3884;48.616;12.872;2023-04-25T16:33:10;10.20;94.10